createdAt,value
2017-10-09T00:00:59.418Z,0.00
2017-10-09T00:01:59.407Z,0.00
2017-10-09T00:03:53.370Z,0.00
2017-10-09T00:04:52.924Z,0.00
2017-10-09T00:06:47.852Z,0.00
2017-10-09T00:07:47.710Z,0.00
2017-10-09T00:09:55.238Z,0.00
2017-10-09T00:10:55.029Z,0.00
2017-10-09T00:12:49.608Z,0.00
2017-10-09T00:13:49.605Z,0.00
2017-10-09T00:15:51.183Z,0.00
2017-10-09T00:16:43.865Z,0.00
2017-10-09T00:18:37.406Z,0.00
2017-10-09T00:19:37.269Z,0.00
2017-10-09T00:21:40.650Z,0.00
2017-10-09T00:22:32.433Z,0.00
2017-10-09T00:24:27.054Z,0.00
2017-10-09T00:25:26.983Z,0.00
2017-10-09T00:27:21.331Z,0.00
2017-10-09T00:28:21.338Z,0.00
2017-10-09T00:30:15.811Z,0.00
2017-10-09T00:31:15.990Z,0.00
2017-10-09T00:33:09.116Z,0.00
2017-10-09T00:34:09.358Z,0.00
2017-10-09T00:36:02.854Z,0.00
2017-10-09T00:37:02.758Z,0.00
2017-10-09T00:39:11.125Z,0.00
2017-10-09T00:40:11.874Z,0.00
2017-10-09T00:42:25.158Z,0.00
2017-10-09T00:43:17.613Z,0.00
2017-10-09T00:45:11.806Z,0.00
2017-10-09T00:46:11.488Z,0.00
2017-10-09T00:48:15.103Z,0.00
2017-10-09T00:49:06.627Z,0.00
2017-10-09T00:51:01.486Z,0.00
2017-10-09T00:52:01.227Z,0.00
2017-10-09T00:53:55.422Z,0.00
2017-10-09T00:54:55.317Z,0.00
2017-10-09T00:56:49.772Z,0.00
2017-10-09T00:57:49.682Z,0.00
2017-10-09T00:59:43.064Z,0.00
2017-10-09T01:00:43.219Z,0.00
2017-10-09T01:02:45.863Z,0.00
2017-10-09T01:03:36.518Z,0.00
2017-10-09T01:05:37.587Z,0.00
2017-10-09T01:06:29.840Z,0.00
2017-10-09T01:08:31.209Z,0.00
2017-10-09T01:09:23.413Z,0.00
2017-10-09T01:11:25.853Z,0.00
2017-10-09T01:12:17.748Z,0.00
2017-10-09T01:14:11.309Z,0.00
2017-10-09T01:15:11.590Z,0.00
2017-10-09T01:17:05.385Z,0.00
2017-10-09T01:18:04.707Z,0.00
2017-10-09T01:19:59.496Z,0.00
2017-10-09T01:20:59.395Z,0.00
2017-10-09T01:22:52.399Z,0.00
2017-10-09T01:23:52.629Z,0.00
2017-10-09T01:25:46.967Z,0.00
2017-10-09T01:26:47.366Z,0.00
2017-10-09T01:28:40.982Z,0.00
2017-10-09T01:29:40.642Z,0.00
2017-10-09T01:31:36.489Z,0.00
2017-10-09T01:32:36.228Z,0.00
2017-10-09T01:34:38.463Z,0.00
2017-10-09T01:35:33.254Z,0.00
2017-10-09T01:37:28.762Z,0.00
2017-10-09T01:38:25.116Z,0.00
2017-10-09T01:40:19.267Z,0.00
2017-10-09T01:41:20.658Z,0.00
2017-10-09T01:43:12.724Z,0.00
2017-10-09T01:44:12.720Z,0.00
2017-10-09T01:46:06.176Z,0.00
2017-10-09T01:47:06.152Z,0.00
2017-10-09T01:48:59.875Z,0.00
2017-10-09T01:49:59.698Z,0.00
2017-10-09T01:51:53.414Z,0.00
2017-10-09T01:52:53.438Z,0.00
2017-10-09T01:54:46.874Z,0.00
2017-10-09T01:55:48.549Z,0.00
2017-10-09T01:57:40.806Z,0.00
2017-10-09T01:58:40.119Z,0.00
2017-10-09T02:00:33.141Z,0.00
2017-10-09T02:01:33.191Z,0.00
2017-10-09T02:03:26.573Z,0.00
2017-10-09T02:04:26.547Z,0.00
2017-10-09T02:06:20.202Z,0.00
2017-10-09T02:07:20.048Z,0.00
2017-10-09T02:09:13.651Z,0.00
2017-10-09T02:10:13.574Z,0.00
2017-10-09T02:12:07.204Z,0.00
2017-10-09T02:13:07.461Z,0.00
2017-10-09T02:15:11.127Z,0.00
2017-10-09T02:16:02.034Z,0.00
2017-10-09T02:17:56.184Z,0.00
2017-10-09T02:18:55.219Z,0.00
2017-10-09T02:20:50.790Z,0.00
2017-10-09T02:21:50.393Z,0.00
2017-10-09T02:23:44.413Z,0.00
2017-10-09T02:24:44.113Z,0.00
2017-10-09T02:26:37.945Z,0.00
2017-10-09T02:27:37.306Z,0.00
2017-10-09T02:29:44.261Z,0.00
2017-10-09T02:30:44.852Z,0.00
2017-10-09T02:32:39.204Z,0.00
2017-10-09T02:33:38.891Z,0.00
2017-10-09T02:37:27.448Z,0.00
2017-10-09T02:39:24.038Z,0.00
2017-10-09T02:41:09.636Z,0.00
2017-10-09T02:42:09.944Z,0.00
2017-10-09T02:44:16.997Z,0.00
2017-10-09T02:45:16.801Z,0.00
2017-10-09T02:47:19.494Z,0.00
2017-10-09T02:48:10.419Z,0.00
2017-10-09T02:50:03.901Z,0.00
2017-10-09T02:51:03.405Z,0.00
2017-10-09T02:52:56.931Z,0.00
2017-10-09T02:53:57.520Z,0.00
2017-10-09T02:55:53.278Z,0.00
2017-10-09T02:56:53.355Z,0.00
2017-10-09T02:58:47.283Z,0.00
2017-10-09T02:59:47.261Z,0.00
2017-10-09T03:01:48.200Z,0.00
2017-10-09T03:02:40.438Z,0.00
2017-10-09T03:04:44.269Z,0.00
2017-10-09T03:05:36.794Z,0.00
2017-10-09T03:07:44.580Z,0.00
2017-10-09T03:08:44.409Z,0.00
2017-10-09T03:10:37.951Z,0.00
2017-10-09T03:11:37.702Z,0.00
2017-10-09T03:13:40.890Z,0.00
2017-10-09T03:14:32.332Z,0.00
2017-10-09T03:16:34.920Z,0.00
2017-10-09T03:17:25.470Z,0.00
2017-10-09T03:19:20.887Z,0.00
2017-10-09T03:20:20.918Z,0.00
2017-10-09T03:22:39.626Z,0.00
2017-10-09T03:23:39.954Z,0.00
2017-10-09T03:25:34.349Z,0.00
2017-10-09T03:26:33.966Z,0.00
2017-10-09T03:28:28.673Z,0.00
2017-10-09T03:29:28.692Z,0.00
2017-10-09T03:31:21.986Z,0.00
2017-10-09T03:32:21.713Z,0.00
2017-10-09T03:34:16.215Z,0.00
2017-10-09T03:35:16.117Z,0.00
2017-10-09T03:37:09.436Z,0.00
2017-10-09T03:38:09.571Z,0.00
2017-10-09T03:40:03.051Z,0.00
2017-10-09T03:41:03.009Z,0.00
2017-10-09T03:42:58.089Z,0.00
2017-10-09T03:43:57.853Z,0.00
2017-10-09T03:45:54.234Z,0.00
2017-10-09T03:46:53.854Z,0.00
2017-10-09T03:48:47.419Z,0.00
2017-10-09T03:49:47.280Z,0.00
2017-10-09T03:51:54.318Z,0.00
2017-10-09T03:52:54.514Z,0.00
2017-10-09T03:54:48.555Z,0.00
2017-10-09T03:55:48.488Z,0.00
2017-10-09T03:57:55.664Z,0.00
2017-10-09T03:58:55.673Z,0.00
2017-10-09T04:00:49.257Z,0.00
2017-10-09T04:01:49.293Z,0.00
2017-10-09T04:03:42.298Z,0.00
2017-10-09T04:04:42.497Z,0.00
2017-10-09T04:06:36.470Z,0.00
2017-10-09T04:07:36.285Z,0.00
2017-10-09T04:09:29.738Z,0.00
2017-10-09T04:10:30.035Z,0.00
2017-10-09T04:12:23.086Z,0.00
2017-10-09T04:13:23.177Z,0.00
2017-10-09T04:15:16.611Z,0.00
2017-10-09T04:16:16.743Z,0.00
2017-10-09T04:18:10.949Z,0.00
2017-10-09T04:19:11.069Z,0.00
2017-10-09T04:21:04.424Z,0.00
2017-10-09T04:22:04.375Z,0.00
2017-10-09T04:24:05.892Z,0.00
2017-10-09T04:24:57.564Z,0.00
2017-10-09T04:26:51.840Z,0.00
2017-10-09T04:27:52.006Z,0.00
2017-10-09T04:29:45.518Z,0.00
2017-10-09T04:30:45.279Z,0.00
2017-10-09T04:32:39.563Z,0.00
2017-10-09T04:33:38.576Z,0.00
2017-10-09T04:35:41.075Z,0.00
2017-10-09T04:36:32.156Z,0.00
2017-10-09T04:38:25.559Z,0.00
2017-10-09T04:39:25.433Z,0.00
2017-10-09T04:41:18.870Z,0.00
2017-10-09T04:42:18.802Z,0.00
2017-10-09T04:44:12.253Z,0.00
2017-10-09T04:45:12.172Z,0.00
2017-10-09T04:47:16.428Z,0.00
2017-10-09T04:48:07.756Z,0.00
2017-10-09T04:50:02.081Z,0.00
2017-10-09T04:51:02.236Z,0.00
2017-10-09T04:52:55.402Z,0.00
2017-10-09T04:53:55.510Z,0.00
2017-10-09T04:55:49.869Z,0.00
2017-10-09T04:56:49.862Z,0.00
2017-10-09T04:58:43.222Z,0.00
2017-10-09T04:59:43.264Z,0.00
2017-10-09T05:01:36.636Z,0.00
2017-10-09T05:02:36.633Z,0.00
2017-10-09T05:04:30.030Z,0.00
2017-10-09T05:05:30.038Z,0.00
2017-10-09T05:07:23.443Z,0.00
2017-10-09T05:08:23.415Z,0.00
2017-10-09T05:10:16.795Z,0.00
2017-10-09T05:11:16.866Z,0.00
2017-10-09T05:13:10.224Z,4.00
2017-10-09T05:14:10.234Z,0.00
2017-10-09T05:16:03.609Z,4.00
2017-10-09T05:17:04.064Z,4.00
2017-10-09T05:18:57.088Z,4.00
2017-10-09T05:19:57.059Z,4.00
2017-10-09T05:21:50.462Z,4.00
2017-10-09T05:22:50.442Z,8.00
2017-10-09T05:24:43.834Z,8.00
2017-10-09T05:25:43.823Z,12.00
2017-10-09T05:27:37.271Z,16.00
2017-10-09T05:28:37.216Z,16.00
2017-10-09T05:30:30.614Z,20.00
2017-10-09T05:31:30.613Z,24.00
2017-10-09T05:34:24.024Z,32.00
2017-10-09T05:36:17.505Z,40.00
2017-10-09T05:37:17.849Z,44.00
2017-10-09T05:39:10.901Z,56.00
2017-10-09T05:40:10.864Z,60.00
2017-10-09T05:42:04.324Z,68.00
2017-10-09T05:43:04.227Z,72.00
2017-10-09T05:44:57.672Z,80.00
2017-10-09T05:45:57.662Z,80.00
2017-10-09T05:47:51.104Z,96.00
2017-10-09T05:48:51.050Z,100.00
2017-10-09T05:50:44.458Z,120.00
2017-10-09T05:51:44.431Z,132.00
2017-10-09T05:53:37.886Z,156.00
2017-10-09T05:54:37.875Z,164.00
2017-10-09T05:56:31.316Z,184.00
2017-10-09T05:57:33.779Z,196.00
2017-10-09T05:59:25.308Z,216.00
2017-10-09T06:00:24.851Z,224.00
2017-10-09T06:02:18.235Z,244.00
2017-10-09T06:03:18.228Z,268.00
2017-10-09T06:05:12.668Z,316.00
2017-10-09T06:06:12.644Z,332.00
2017-10-09T06:08:06.058Z,364.00
2017-10-09T06:09:06.044Z,384.00
2017-10-09T06:10:59.449Z,404.00
2017-10-09T06:11:59.440Z,420.00
2017-10-09T06:13:52.837Z,436.00
2017-10-09T06:14:52.834Z,448.00
2017-10-09T06:16:46.239Z,472.00
2017-10-09T06:17:46.364Z,492.00
2017-10-09T06:19:39.632Z,520.00
2017-10-09T06:20:39.611Z,520.00
2017-10-09T06:22:33.034Z,536.00
2017-10-09T06:23:32.980Z,564.00
2017-10-09T06:25:27.505Z,652.00
2017-10-09T06:26:27.475Z,708.00
2017-10-09T06:28:21.182Z,724.00
2017-10-09T06:29:20.924Z,680.00
2017-10-09T06:31:14.340Z,704.00
2017-10-09T06:32:14.297Z,728.00
2017-10-09T06:34:07.689Z,780.00
2017-10-09T06:35:07.729Z,828.00
2017-10-09T06:37:02.211Z,896.00
2017-10-09T06:38:02.138Z,924.00
2017-10-09T06:40:04.107Z,992.00
2017-10-09T06:40:56.438Z,1008.00
2017-10-09T06:42:49.920Z,1004.00
2017-10-09T06:43:49.875Z,992.00
2017-10-09T06:45:43.266Z,1012.00
2017-10-09T06:46:43.282Z,1040.00
2017-10-09T06:48:36.751Z,1032.00
2017-10-09T06:49:36.713Z,1032.00
2017-10-09T06:51:30.074Z,1088.00
2017-10-09T06:52:30.095Z,1124.00
2017-10-09T06:54:23.578Z,1284.00
2017-10-09T06:55:23.500Z,1304.00
2017-10-09T06:57:16.891Z,1400.00
2017-10-09T06:58:16.904Z,1448.00
2017-10-09T07:00:10.317Z,1520.00
2017-10-09T07:01:10.323Z,1588.00
2017-10-09T07:03:03.743Z,1760.00
2017-10-09T07:04:03.771Z,1800.00
2017-10-09T07:05:59.135Z,1792.00
2017-10-09T07:06:59.137Z,1776.00
2017-10-09T07:08:52.546Z,1772.00
2017-10-09T07:09:52.524Z,1752.00
2017-10-09T07:11:45.972Z,1624.00
2017-10-09T07:12:45.975Z,1616.00
2017-10-09T07:14:39.430Z,1688.00
2017-10-09T07:15:39.332Z,1712.00
2017-10-09T07:17:32.827Z,1632.00
2017-10-09T07:18:32.748Z,1660.00
2017-10-09T07:20:26.171Z,1712.00
2017-10-09T07:21:26.145Z,1740.00
2017-10-09T07:23:19.566Z,1768.00
2017-10-09T07:24:19.554Z,1828.00
2017-10-09T07:26:13.004Z,2008.00
2017-10-09T07:27:13.450Z,2088.00
2017-10-09T07:29:06.368Z,2192.00
2017-10-09T07:30:06.361Z,2208.00
2017-10-09T07:31:59.738Z,2248.00
2017-10-09T07:32:59.798Z,2284.00
2017-10-09T07:34:53.234Z,2280.00
2017-10-09T07:35:53.151Z,2312.00
2017-10-09T07:37:46.603Z,2460.00
2017-10-09T07:38:46.602Z,2552.00
2017-10-09T07:40:40.017Z,2804.00
2017-10-09T07:41:40.014Z,2760.00
2017-10-09T07:43:33.419Z,2780.00
2017-10-09T07:44:33.445Z,2684.00
2017-10-09T07:46:27.387Z,2552.00
2017-10-09T07:47:26.821Z,2692.00
2017-10-09T07:49:20.191Z,2868.00
2017-10-09T07:50:20.195Z,2960.00
2017-10-09T07:52:13.634Z,3016.00
2017-10-09T07:53:13.627Z,3052.00
2017-10-09T07:55:07.025Z,3080.00
2017-10-09T07:56:07.004Z,3056.00
2017-10-09T07:58:00.479Z,3020.00
2017-10-09T07:59:00.419Z,2976.00
2017-10-09T08:00:53.801Z,2756.00
2017-10-09T08:01:53.850Z,2692.00
2017-10-09T08:03:47.238Z,2928.00
2017-10-09T08:04:47.234Z,3032.00
2017-10-09T08:06:40.612Z,3160.00
2017-10-09T08:07:40.640Z,3256.00
2017-10-09T08:09:34.071Z,3320.00
2017-10-09T08:10:34.036Z,3424.00
2017-10-09T08:12:27.422Z,3688.00
2017-10-09T08:13:27.415Z,3676.00
2017-10-09T08:15:20.881Z,3884.00
2017-10-09T08:16:20.831Z,3960.00
2017-10-09T08:18:15.267Z,4096.00
2017-10-09T08:19:15.224Z,4148.00
2017-10-09T08:21:08.643Z,4236.00
2017-10-09T08:22:08.622Z,4188.00
2017-10-09T08:24:02.037Z,4076.00
2017-10-09T08:25:02.024Z,3544.00
2017-10-09T08:26:55.469Z,3476.00
2017-10-09T08:27:55.437Z,3500.00
2017-10-09T08:29:48.820Z,4136.00
2017-10-09T08:30:48.812Z,3712.00
2017-10-09T08:32:42.235Z,3156.00
2017-10-09T08:33:42.215Z,3340.00
2017-10-09T08:35:36.610Z,3016.00
2017-10-09T08:36:36.606Z,3220.00
2017-10-09T08:38:30.019Z,3284.00
2017-10-09T08:39:29.993Z,3128.00
2017-10-09T08:41:23.415Z,2892.00
2017-10-09T08:42:23.436Z,2808.00
2017-10-09T08:44:16.855Z,3312.00
2017-10-09T08:45:16.820Z,3740.00
2017-10-09T08:47:11.243Z,3428.00
2017-10-09T08:48:11.421Z,3020.00
2017-10-09T08:50:04.613Z,3656.00
2017-10-09T08:51:04.804Z,4292.00
2017-10-09T08:52:59.385Z,4200.00
2017-10-09T08:53:59.176Z,4056.00
2017-10-09T08:55:54.505Z,3504.00
2017-10-09T08:56:54.579Z,3784.00
2017-10-09T08:58:49.638Z,4568.00
2017-10-09T08:59:48.957Z,4436.00
2017-10-09T09:01:50.025Z,4500.00
2017-10-09T09:02:42.521Z,4176.00
2017-10-09T09:04:37.510Z,3948.00
2017-10-09T09:05:45.729Z,3516.00
2017-10-09T09:07:31.603Z,3168.00
2017-10-09T09:08:32.441Z,3768.00
2017-10-09T09:10:26.796Z,4164.00
2017-10-09T09:11:35.403Z,4228.00
2017-10-09T09:13:21.159Z,4584.00
2017-10-09T09:14:30.051Z,4532.00
2017-10-09T09:16:24.115Z,4448.00
2017-10-09T09:17:24.474Z,4532.00
2017-10-09T09:19:18.574Z,4200.00
2017-10-09T09:20:11.009Z,3876.00
2017-10-09T09:22:13.068Z,3428.00
2017-10-09T09:23:13.007Z,3536.00
2017-10-09T09:25:00.005Z,3732.00
2017-10-09T09:27:54.194Z,5116.00
2017-10-09T09:29:02.837Z,5508.00
2017-10-09T09:30:55.341Z,5392.00
2017-10-09T09:31:47.503Z,5392.00
2017-10-09T09:33:41.252Z,5412.00
2017-10-09T09:34:42.208Z,5656.00
2017-10-09T09:36:49.286Z,5236.00
2017-10-09T09:37:35.704Z,4984.00
2017-10-09T09:39:36.778Z,5324.00
2017-10-09T09:40:29.246Z,5544.00
2017-10-09T09:42:22.546Z,5600.00
2017-10-09T09:43:22.516Z,6320.00
2017-10-09T09:45:16.840Z,6688.00
2017-10-09T09:46:16.963Z,7036.00
2017-10-09T09:48:10.168Z,6968.00
2017-10-09T09:49:18.750Z,6976.00
2017-10-09T09:51:03.376Z,7316.00
2017-10-09T09:52:03.243Z,6000.00
2017-10-09T09:53:56.685Z,6444.00
2017-10-09T09:54:56.662Z,5888.00
2017-10-09T09:56:50.066Z,5188.00
2017-10-09T09:57:50.093Z,5528.00
2017-10-09T09:59:43.527Z,5724.00
2017-10-09T10:00:43.450Z,5404.00
2017-10-09T10:02:36.865Z,5444.00
2017-10-09T10:03:36.843Z,6844.00
2017-10-09T10:05:30.260Z,12400.00
2017-10-09T10:06:30.258Z,7776.00
2017-10-09T10:08:23.648Z,17088.00
2017-10-09T10:09:23.656Z,17440.00
2017-10-09T10:11:17.086Z,16896.00
2017-10-09T10:12:17.064Z,11032.00
2017-10-09T10:14:10.487Z,8776.00
2017-10-09T10:15:10.479Z,8764.00
2017-10-09T10:17:03.922Z,8512.00
2017-10-09T10:18:03.889Z,9356.00
2017-10-09T10:19:57.895Z,7564.00
2017-10-09T10:20:57.605Z,10296.00
2017-10-09T10:22:50.872Z,8148.00
2017-10-09T10:23:50.857Z,7444.00
2017-10-09T10:25:44.247Z,5616.00
2017-10-09T10:26:44.276Z,5156.00
2017-10-09T10:28:37.684Z,4672.00
2017-10-09T10:29:37.683Z,4260.00
2017-10-09T10:31:31.057Z,3684.00
2017-10-09T10:32:31.091Z,3528.00
2017-10-09T10:34:24.510Z,2676.00
2017-10-09T10:35:24.626Z,2416.00
2017-10-09T10:37:17.905Z,2620.00
2017-10-09T10:38:17.909Z,2564.00
2017-10-09T10:40:11.334Z,2836.00
2017-10-09T10:41:11.312Z,2880.00
2017-10-09T10:43:04.698Z,2808.00
2017-10-09T10:44:04.709Z,2792.00
2017-10-09T10:45:58.140Z,2980.00
2017-10-09T10:46:58.108Z,3056.00
2017-10-09T10:48:51.558Z,3332.00
2017-10-09T10:49:51.572Z,3244.00
2017-10-09T10:51:44.993Z,3524.00
2017-10-09T10:52:45.013Z,3256.00
2017-10-09T10:54:39.237Z,3312.00
2017-10-09T10:55:39.274Z,3196.00
2017-10-09T10:57:32.653Z,2676.00
2017-10-09T10:58:32.667Z,2396.00
2017-10-09T11:00:27.097Z,2552.00
2017-10-09T11:01:27.040Z,2644.00
2017-10-09T11:03:20.464Z,2664.00
2017-10-09T11:04:20.474Z,2744.00
2017-10-09T11:06:13.850Z,2896.00
2017-10-09T11:07:13.896Z,2924.00
2017-10-09T11:09:07.259Z,3008.00
2017-10-09T11:10:07.288Z,3008.00
2017-10-09T11:12:01.689Z,2700.00
2017-10-09T11:13:01.688Z,2572.00
2017-10-09T11:14:55.081Z,2752.00
2017-10-09T11:15:55.123Z,3032.00
2017-10-09T11:17:48.507Z,3632.00
2017-10-09T11:18:48.497Z,3952.00
2017-10-09T11:20:41.908Z,4892.00
2017-10-09T11:21:41.880Z,5504.00
2017-10-09T11:23:35.323Z,8008.00
2017-10-09T11:24:35.288Z,8104.00
2017-10-09T11:26:28.694Z,7396.00
2017-10-09T11:27:28.703Z,6320.00
2017-10-09T11:29:22.104Z,5924.00
2017-10-09T11:30:22.123Z,6568.00
2017-10-09T11:32:15.493Z,5920.00
2017-10-09T11:33:15.557Z,4900.00
2017-10-09T11:35:08.915Z,3876.00
2017-10-09T11:36:08.927Z,3412.00
2017-10-09T11:38:02.331Z,2724.00
2017-10-09T11:39:02.334Z,2356.00
2017-10-09T11:40:55.727Z,1936.00
2017-10-09T11:41:55.740Z,2076.00
2017-10-09T11:43:49.139Z,2656.00
2017-10-09T11:44:49.146Z,3028.00
2017-10-09T11:46:42.537Z,6056.00
2017-10-09T11:47:42.576Z,7984.00
2017-10-09T11:49:36.515Z,5164.00
2017-10-09T11:50:35.970Z,3872.00
2017-10-09T11:52:29.354Z,2544.00
2017-10-09T11:53:29.359Z,2128.00
2017-10-09T11:55:23.802Z,1932.00
2017-10-09T11:56:23.793Z,1700.00
2017-10-09T11:58:17.171Z,1360.00
2017-10-09T11:59:17.176Z,1020.00
2017-10-09T12:01:10.625Z,552.00
2017-10-09T12:02:10.595Z,508.00
2017-10-09T12:04:04.006Z,576.00
2017-10-09T12:05:03.999Z,744.00
2017-10-09T12:06:57.424Z,916.00
2017-10-09T12:07:57.422Z,1020.00
2017-10-09T12:09:51.931Z,1052.00
2017-10-09T12:10:51.830Z,1228.00
2017-10-09T12:12:46.248Z,1668.00
2017-10-09T12:13:46.208Z,1612.00
2017-10-09T12:15:40.638Z,1776.00
2017-10-09T12:16:40.645Z,1856.00
2017-10-09T12:18:34.037Z,2304.00
2017-10-09T12:19:34.047Z,2440.00
2017-10-09T12:21:27.444Z,2816.00
2017-10-09T12:22:27.454Z,2996.00
2017-10-09T12:24:20.859Z,3156.00
2017-10-09T12:25:20.859Z,3172.00
2017-10-09T12:27:15.271Z,3404.00
2017-10-09T12:28:15.242Z,3684.00
2017-10-09T12:30:08.626Z,3844.00
2017-10-09T12:31:08.660Z,4144.00
2017-10-09T12:33:03.047Z,4436.00
2017-10-09T12:34:03.068Z,3880.00
2017-10-09T12:35:56.676Z,3756.00
2017-10-09T12:36:56.764Z,4164.00
2017-10-09T12:38:50.070Z,5328.00
2017-10-09T12:39:50.267Z,5528.00
2017-10-09T12:41:44.501Z,5240.00
2017-10-09T12:42:44.491Z,4828.00
2017-10-09T12:44:39.124Z,4324.00
2017-10-09T12:45:38.885Z,4012.00
2017-10-09T12:47:34.426Z,3076.00
2017-10-09T12:48:34.279Z,2736.00
2017-10-09T12:50:28.944Z,2140.00
2017-10-09T12:51:29.028Z,2048.00
2017-10-09T12:53:23.286Z,2024.00
2017-10-09T12:54:23.221Z,2040.00
2017-10-09T12:56:17.671Z,1848.00
2017-10-09T12:57:17.440Z,1692.00
2017-10-09T12:59:10.816Z,1500.00
2017-10-09T13:00:10.933Z,1416.00
2017-10-09T13:02:04.214Z,1400.00
2017-10-09T13:03:04.208Z,1456.00
2017-10-09T13:04:57.598Z,1604.00
2017-10-09T13:05:57.610Z,1728.00
2017-10-09T13:07:51.017Z,2012.00
2017-10-09T13:08:51.006Z,2148.00
2017-10-09T13:10:44.400Z,2256.00
2017-10-09T13:11:44.412Z,2192.00
2017-10-09T13:13:38.881Z,2212.00
2017-10-09T13:14:38.829Z,2248.00
2017-10-09T13:16:32.234Z,1976.00
2017-10-09T13:17:32.229Z,1820.00
2017-10-09T13:19:26.649Z,1648.00
2017-10-09T13:20:26.637Z,1712.00
2017-10-09T13:22:21.061Z,2024.00
2017-10-09T13:23:21.434Z,2104.00
2017-10-09T13:25:14.470Z,2168.00
2017-10-09T13:26:14.419Z,2156.00
2017-10-09T13:28:07.853Z,1924.00
2017-10-09T13:29:07.864Z,1900.00
2017-10-09T13:31:01.271Z,1936.00
2017-10-09T13:32:01.248Z,1936.00
2017-10-09T13:33:55.637Z,2020.00
2017-10-09T13:34:55.663Z,2116.00
2017-10-09T13:36:49.088Z,2156.00
2017-10-09T13:37:49.041Z,2164.00
2017-10-09T13:39:42.471Z,2348.00
2017-10-09T13:40:42.515Z,2504.00
2017-10-09T13:42:36.852Z,2696.00
2017-10-09T13:43:36.857Z,2716.00
2017-10-09T13:45:30.398Z,2416.00
2017-10-09T13:46:30.253Z,2308.00
2017-10-09T13:48:23.721Z,2284.00
2017-10-09T13:49:23.690Z,2444.00
2017-10-09T13:51:17.083Z,2816.00
2017-10-09T13:52:17.168Z,3016.00
2017-10-09T13:54:10.498Z,3368.00
2017-10-09T13:55:10.492Z,3488.00
2017-10-09T13:57:04.933Z,3440.00
2017-10-09T13:58:04.884Z,3380.00
2017-10-09T13:59:59.294Z,3224.00
2017-10-09T14:00:59.271Z,3292.00
2017-10-09T14:02:52.717Z,3500.00
2017-10-09T14:03:52.708Z,3608.00
2017-10-09T14:05:46.103Z,3776.00
2017-10-09T14:06:46.085Z,3620.00
2017-10-09T14:08:40.516Z,3620.00
2017-10-09T14:09:40.501Z,3628.00
2017-10-09T14:11:33.879Z,3440.00
2017-10-09T14:12:33.888Z,3100.00
2017-10-09T14:14:27.312Z,2616.00
2017-10-09T14:17:22.195Z,2384.00
2017-10-09T14:18:21.700Z,2868.00
2017-10-09T14:20:15.121Z,4224.00
2017-10-09T14:21:15.091Z,4728.00
2017-10-09T14:23:08.516Z,4436.00
2017-10-09T14:24:08.517Z,3776.00
2017-10-09T14:26:01.966Z,2636.00
2017-10-09T14:27:01.939Z,2616.00
2017-10-09T14:28:55.337Z,2684.00
2017-10-09T14:29:55.341Z,3012.00
2017-10-09T14:40:31.023Z,1476.00
2017-10-09T14:41:30.108Z,1400.00
2017-10-09T14:43:23.517Z,1232.00
2017-10-09T14:44:23.506Z,1192.00
2017-10-09T14:46:16.896Z,1120.00
2017-10-09T14:47:16.900Z,1160.00
2017-10-09T14:49:10.324Z,1268.00
2017-10-09T14:50:10.281Z,1236.00
2017-10-09T14:52:03.695Z,1236.00
2017-10-09T14:53:03.709Z,1204.00
2017-10-09T14:54:58.114Z,1300.00
2017-10-09T14:55:58.127Z,1432.00
2017-10-09T14:57:51.546Z,1752.00
2017-10-09T14:58:51.528Z,1724.00
2017-10-09T15:00:44.956Z,1512.00
2017-10-09T15:01:44.910Z,1364.00
2017-10-09T15:03:38.342Z,1188.00
2017-10-09T15:04:38.385Z,1144.00
2017-10-09T15:06:32.042Z,928.00
2017-10-09T15:07:31.857Z,844.00
2017-10-09T15:09:25.217Z,812.00
2017-10-09T15:10:32.788Z,812.00
2017-10-09T15:12:18.550Z,860.00
2017-10-09T15:13:18.542Z,916.00
2017-10-09T15:15:11.949Z,1036.00
2017-10-09T15:16:11.965Z,1060.00
2017-10-09T15:18:05.380Z,1128.00
2017-10-09T15:19:05.347Z,1148.00
2017-10-09T15:20:58.778Z,1168.00
2017-10-09T15:21:58.759Z,1144.00
2017-10-09T15:23:52.183Z,1156.00
2017-10-09T15:24:52.185Z,1152.00
2017-10-09T15:26:45.611Z,940.00
2017-10-09T15:27:45.586Z,892.00
2017-10-09T15:29:38.970Z,816.00
2017-10-09T15:30:39.013Z,816.00
2017-10-09T15:32:32.392Z,816.00
2017-10-09T15:33:32.407Z,792.00
2017-10-09T15:35:25.772Z,740.00
2017-10-09T15:36:25.795Z,728.00
2017-10-09T15:38:19.233Z,676.00
2017-10-09T15:39:19.180Z,648.00
2017-10-09T15:41:12.596Z,648.00
2017-10-09T15:42:12.618Z,680.00
2017-10-09T15:44:06.027Z,688.00
2017-10-09T15:45:06.016Z,668.00
2017-10-09T15:46:59.441Z,672.00
2017-10-09T15:47:59.391Z,668.00
2017-10-09T15:49:52.809Z,716.00
2017-10-09T15:50:52.792Z,780.00
2017-10-09T15:52:46.214Z,876.00
2017-10-09T15:53:46.189Z,884.00
2017-10-09T15:55:39.695Z,856.00
2017-10-09T15:56:39.650Z,852.00
2017-10-09T15:58:34.022Z,908.00
2017-10-09T15:59:34.019Z,964.00
2017-10-09T16:01:27.412Z,1016.00
2017-10-09T16:02:27.419Z,988.00
2017-10-09T16:04:20.803Z,920.00
2017-10-09T16:05:20.797Z,860.00
2017-10-09T16:07:14.226Z,732.00
2017-10-09T16:08:14.220Z,668.00
2017-10-09T16:10:07.640Z,576.00
2017-10-09T16:11:07.644Z,556.00
2017-10-09T16:13:01.026Z,448.00
2017-10-09T16:14:01.003Z,388.00
2017-10-09T16:15:54.419Z,300.00
2017-10-09T16:16:54.431Z,268.00
2017-10-09T16:18:47.848Z,212.00
2017-10-09T16:19:47.848Z,188.00
2017-10-09T16:21:41.210Z,156.00
2017-10-09T16:22:41.238Z,152.00
2017-10-09T16:24:34.629Z,160.00
2017-10-09T16:25:34.648Z,160.00
2017-10-09T16:27:28.033Z,144.00
2017-10-09T16:28:28.081Z,132.00
2017-10-09T16:30:21.473Z,112.00
2017-10-09T16:31:21.465Z,100.00
2017-10-09T16:33:14.861Z,88.00
2017-10-09T16:34:14.833Z,80.00
2017-10-09T16:36:08.278Z,68.00
2017-10-09T16:37:08.263Z,68.00
2017-10-09T16:39:01.655Z,60.00
2017-10-09T16:40:01.635Z,60.00
2017-10-09T16:41:55.095Z,56.00
2017-10-09T16:42:55.097Z,52.00
2017-10-09T16:44:48.442Z,44.00
2017-10-09T16:45:48.461Z,36.00
2017-10-09T16:47:41.872Z,24.00
2017-10-09T16:48:41.869Z,24.00
2017-10-09T16:50:35.270Z,20.00
2017-10-09T16:51:35.287Z,16.00
2017-10-09T16:53:28.659Z,12.00
2017-10-09T16:54:28.686Z,12.00
2017-10-09T16:56:23.145Z,8.00
2017-10-09T16:57:23.167Z,8.00
2017-10-09T16:59:16.511Z,8.00
2017-10-09T17:00:16.528Z,4.00
2017-10-09T17:02:09.906Z,4.00
2017-10-09T17:03:09.961Z,0.00
2017-10-09T17:05:03.287Z,0.00
2017-10-09T17:06:03.303Z,4.00
2017-10-09T17:07:56.737Z,0.00
2017-10-09T17:08:56.706Z,0.00
2017-10-09T17:10:50.188Z,0.00
2017-10-09T17:11:50.127Z,0.00
2017-10-09T17:13:43.518Z,0.00
2017-10-09T17:14:43.579Z,0.00
2017-10-09T17:16:36.980Z,0.00
2017-10-09T17:17:44.525Z,0.00
2017-10-09T17:19:30.306Z,0.00
2017-10-09T17:20:30.304Z,0.00
2017-10-09T17:22:23.680Z,0.00
2017-10-09T17:23:23.765Z,0.00
2017-10-09T17:25:17.599Z,0.00
2017-10-09T17:26:17.183Z,0.00
2017-10-09T17:28:10.781Z,0.00
2017-10-09T17:29:10.564Z,0.00
2017-10-09T17:31:04.935Z,0.00
2017-10-09T17:32:04.889Z,0.00
2017-10-09T17:33:58.287Z,0.00
2017-10-09T17:34:58.308Z,0.00
2017-10-09T17:36:51.719Z,0.00
2017-10-09T17:37:51.743Z,0.00
2017-10-09T17:39:45.529Z,0.00
2017-10-09T17:40:45.650Z,0.00
2017-10-09T17:42:40.271Z,0.00
2017-10-09T17:43:38.985Z,0.00
2017-10-09T17:45:32.375Z,0.00
2017-10-09T17:46:32.361Z,0.00
2017-10-09T17:48:25.831Z,0.00
2017-10-09T17:49:26.972Z,0.00
2017-10-09T17:51:19.251Z,0.00
2017-10-09T17:52:19.190Z,0.00
2017-10-09T17:54:12.633Z,0.00
2017-10-09T17:55:12.637Z,0.00
2017-10-09T17:57:07.716Z,0.00
2017-10-09T17:58:06.080Z,0.00
2017-10-09T17:59:59.520Z,0.00
2017-10-09T18:00:59.431Z,0.00
2017-10-09T18:02:54.194Z,0.00
2017-10-09T18:03:53.881Z,0.00
2017-10-09T18:05:48.075Z,0.00
2017-10-09T18:06:48.386Z,0.00
2017-10-09T18:08:40.813Z,0.00
2017-10-09T18:09:41.891Z,0.00
2017-10-09T18:11:34.232Z,0.00
2017-10-09T18:12:35.286Z,0.00
2017-10-09T18:14:27.823Z,0.00
2017-10-09T18:15:27.867Z,0.00
2017-10-09T18:17:21.739Z,0.00
2017-10-09T18:18:21.139Z,0.00
2017-10-09T18:20:23.235Z,0.00
2017-10-09T18:21:15.567Z,0.00
2017-10-09T18:23:08.962Z,0.00
2017-10-09T18:24:09.046Z,0.00
2017-10-09T18:26:11.025Z,0.00
2017-10-09T18:27:02.380Z,0.00
2017-10-09T18:28:55.813Z,0.00
2017-10-09T18:29:55.802Z,0.00
2017-10-09T18:31:49.272Z,0.00
2017-10-09T18:32:49.239Z,0.00